Terminal Aerodrome Forecast
Issued by NWS

Home | Current Version | Previous Version | Text Only | Print | Product List | Glossary On
Versions: 1 2 3 4 5 6 7 8 9 10 11 12 13 14 15 16 17 18 19 20 21 22 23
146
FTUS41 KOKX 100227 AAA
TAFHPN
TAF AMD
KHPN 100227Z 1002/1024 VRB02KT P6SM FEW025 BKN060
     FM100500 VRB02KT 6SM -SN BKN020 OVC030
      TEMPO 1009/1013 2SM -SN OVC010
     FM101400 30010KT P6SM SCT015 BKN035
     FM101700 29012G20KT P6SM BKN040
      AMD NOT SKED=

USA.gov is the U.S. government's official web portal to all federal, state and local government web resources and services.